Time;durP1;ratioP1;P1;durP2;ratioP2;P2;SDS_P1;SDS_P2;PMS_P1;PMS_P2;Temp;Humidity;BMP_temperature;BMP_pressure;BME280_temperature;BME280_humidity;BME280_pressure;Samples;Min_cycle;Max_cycle;Signal;HPM_P1;HPM_P2
2021/04/02 00:00:26;;;;;;;4.75;1.90;;;;;;;3.51;86.34;101471.19;5070602;28;20070;-78
2021/04/02 00:02:51;;;;;;;5.70;2.13;;;;;;;3.39;86.43;101464.06;5071054;28;20150;-78
2021/04/02 00:05:19;;;;;;;4.20;1.80;;;;;;;3.43;86.44;101464.19;5071127;28;20037;-78
2021/04/02 00:07:45;;;;;;;4.00;2.08;;;;;;;3.35;87.17;101465.66;5065912;28;20089;-78
2021/04/02 00:10:20;;;;;;;5.45;2.30;;;;;;;3.27;87.52;101469.75;5069559;28;20029;-78
2021/04/02 00:12:46;;;;;;;4.70;2.38;;;;;;;3.11;88.43;101465.91;5072934;28;20031;-78
2021/04/02 00:15:17;;;;;;;5.35;2.60;;;;;;;3.12;88.59;101466.78;5071966;28;20048;-79
2021/04/02 00:17:44;;;;;;;4.68;2.20;;;;;;;3.07;88.35;101453.81;5071702;28;20025;-79
2021/04/02 00:20:12;;;;;;;5.25;2.20;;;;;;;2.98;88.44;101459.56;5070300;28;20021;-78
2021/04/02 00:22:37;;;;;;;4.30;2.13;;;;;;;2.91;89.46;101459.38;5070089;28;20051;-78
2021/04/02 00:25:03;;;;;;;5.00;2.25;;;;;;;2.82;88.98;101452.28;5070125;28;20033;-78
2021/04/02 00:27:28;;;;;;;4.80;2.08;;;;;;;2.87;89.39;101455.84;5071180;28;20028;-79
2021/04/02 00:29:53;;;;;;;4.15;1.98;;;;;;;2.91;88.70;101460.22;5070803;28;20049;-79
2021/04/02 00:32:19;;;;;;;4.18;1.90;;;;;;;2.73;89.91;101457.16;5069453;28;20039;-78
2021/04/02 00:34:44;;;;;;;3.95;1.98;;;;;;;2.69;90.52;101461.31;5066881;28;20029;-78
2021/04/02 00:37:09;;;;;;;4.90;2.28;;;;;;;2.80;90.25;101456.50;5068026;28;20025;-78
2021/04/02 00:39:34;;;;;;;4.55;2.50;;;;;;;2.87;89.90;101450.72;5069188;28;20052;-78
2021/04/02 00:42:00;;;;;;;7.28;2.72;;;;;;;2.83;89.77;101458.28;5070553;28;20084;-78
2021/04/02 00:44:27;;;;;;;4.97;2.40;;;;;;;2.76;90.69;101452.13;5070621;28;20051;-78
2021/04/02 00:46:52;;;;;;;4.45;2.15;;;;;;;2.73;90.27;101458.03;5070859;28;20021;-78
2021/04/02 00:49:17;;;;;;;4.72;2.40;;;;;;;2.56;91.72;101453.25;5070453;28;20085;-78
2021/04/02 00:51:43;;;;;;;4.82;2.42;;;;;;;2.50;91.75;101452.25;5069386;28;20028;-78
2021/04/02 00:54:08;;;;;;;4.30;2.10;;;;;;;2.46;91.88;101455.56;5069219;28;20032;-78
2021/04/02 00:56:33;;;;;;;4.50;2.00;;;;;;;2.29;92.40;101449.94;5068119;28;20029;-78
2021/04/02 00:58:59;;;;;;;5.68;2.70;;;;;;;2.15;92.99;101451.19;5070362;28;20012;-78
2021/04/02 01:01:25;;;;;;;4.78;2.35;;;;;;;2.10;93.23;101446.78;5070483;28;20033;-78
2021/04/02 01:03:52;;;;;;;4.22;2.00;;;;;;;2.02;94.13;101451.66;5071827;28;20045;-78
2021/04/02 01:06:23;;;;;;;5.72;2.58;;;;;;;2.03;94.54;101453.38;5073305;28;20045;-78
2021/04/02 01:08:49;;;;;;;5.25;2.75;;;;;;;1.94;94.43;101459.09;5073105;28;20044;-78
2021/04/02 01:11:18;;;;;;;5.50;3.10;;;;;;;1.98;95.36;101462.63;5072991;28;20025;-78
2021/04/02 01:13:48;;;;;;;7.00;4.00;;;;;;;2.02;96.25;101457.63;5072744;28;20068;-78
2021/04/02 01:16:23;;;;;;;7.63;4.45;;;;;;;1.89;97.09;101458.06;5071432;28;20056;-78
2021/04/02 01:19:13;;;;;;;7.22;3.90;;;;;;;1.91;97.34;101461.56;5073225;28;20028;-79
2021/04/02 01:21:46;;;;;;;6.57;3.92;;;;;;;1.88;96.88;101455.44;5074973;28;20461;-78
2021/04/02 01:24:18;;;;;;;8.75;5.38;;;;;;;1.95;98.45;101452.28;5075333;28;20021;-78
2021/04/02 01:27:26;;;;;;;9.75;5.40;;;;;;;2.07;97.99;101461.22;5076142;28;20499;-78
2021/04/02 01:29:54;;;;;;;11.10;6.30;;;;;;;2.19;98.34;101453.03;5075871;28;20119;-78
2021/04/02 01:32:29;;;;;;;8.57;4.93;;;;;;;2.21;97.17;101446.25;5074744;28;20035;-79
2021/04/02 01:35:11;;;;;;;9.98;6.28;;;;;;;2.13;99.23;101445.19;5074714;28;20040;-78
2021/04/02 01:37:57;;;;;;;9.80;6.22;;;;;;;2.20;99.24;101444.53;5075817;28;20025;-78
2021/04/02 01:40:26;;;;;;;11.63;6.55;;;;;;;2.24;100.00;101436.09;5077334;28;20017;-78
2021/04/02 01:42:53;;;;;;;13.68;8.07;;;;;;;2.29;100.00;101437.13;5076990;28;20021;-78
2021/04/02 01:45:19;;;;;;;18.52;10.63;;;;;;;2.33;100.00;101435.53;5076403;28;20020;-79
2021/04/02 01:47:46;;;;;;;15.00;10.07;;;;;;;2.32;100.00;101432.94;5075943;28;20376;-79
2021/04/02 01:50:15;;;;;;;15.55;9.60;;;;;;;2.23;100.00;101431.81;5075698;28;20025;-79
2021/04/02 01:52:41;;;;;;;16.42;10.27;;;;;;;2.20;100.00;101436.84;5075682;28;20025;-79
2021/04/02 01:55:12;;;;;;;16.60;10.10;;;;;;;2.08;100.00;101437.34;5074486;28;20025;-79
2021/04/02 01:57:39;;;;;;;16.95;9.38;;;;;;;1.97;100.00;101446.41;5073196;28;20021;-78
2021/04/02 02:00:11;;;;;;;14.82;8.48;;;;;;;2.02;100.00;101444.84;5075028;28;20025;-78
2021/04/02 02:02:37;;;;;;;15.02;8.82;;;;;;;2.06;100.00;101438.13;5074177;28;20047;-78
2021/04/02 02:05:06;;;;;;;14.48;7.53;;;;;;;2.10;100.00;101445.09;5075299;28;20035;-78
2021/04/02 02:07:32;;;;;;;12.65;6.82;;;;;;;2.01;100.00;101439.69;5076871;28;20021;-78
2021/04/02 02:09:58;;;;;;;13.85;7.60;;;;;;;2.03;100.00;101435.47;5076394;28;20063;-79
2021/04/02 02:12:24;;;;;;;17.90;8.55;;;;;;;2.05;100.00;101437.25;5076265;28;20036;-79
2021/04/02 02:14:51;;;;;;;14.30;8.18;;;;;;;2.07;100.00;101437.31;5075653;28;20052;-79
2021/04/02 02:17:21;;;;;;;17.00;9.35;;;;;;;2.09;100.00;101435.66;5076581;28;20043;-79
2021/04/02 02:19:48;;;;;;;16.17;8.95;;;;;;;2.11;100.00;101439.13;5075625;28;20056;-79
2021/04/02 02:22:16;;;;;;;18.15;9.57;;;;;;;2.25;100.00;101432.75;5074038;28;20083;-78
2021/04/02 02:24:42;;;;;;;14.75;9.25;;;;;;;2.23;100.00;101428.41;5074154;28;20039;-78
2021/04/02 02:27:08;;;;;;;14.93;8.93;;;;;;;2.22;100.00;101442.03;5074947;28;20035;-78
2021/04/02 02:29:33;;;;;;;16.45;9.38;;;;;;;2.31;100.00;101432.06;5074078;28;20053;-79
2021/04/02 02:32:00;;;;;;;22.40;11.50;;;;;;;2.38;100.00;101436.53;5074027;28;20048;-79
2021/04/02 02:34:26;;;;;;;18.35;10.55;;;;;;;2.42;100.00;101440.03;5073360;28;20013;-79
2021/04/02 02:36:51;;;;;;;22.63;9.98;;;;;;;2.29;100.00;101431.16;5072289;28;20068;-79
2021/04/02 02:39:17;;;;;;;19.08;10.20;;;;;;;2.41;100.00;101431.50;5074489;28;20012;-78
2021/04/02 02:41:43;;;;;;;17.13;9.30;;;;;;;2.32;100.00;101432.94;5074781;28;20036;-79
2021/04/02 02:44:08;;;;;;;17.85;9.52;;;;;;;2.42;100.00;101429.81;5074955;28;20024;-79
2021/04/02 02:46:34;;;;;;;20.33;9.38;;;;;;;2.34;100.00;101426.16;5073638;28;20013;-79
2021/04/02 02:49:20;;;;;;;31.13;10.65;;;;;;;2.31;100.00;101419.28;5074462;28;20021;-79
2021/04/02 02:51:46;;;;;;;65.20;11.93;;;;;;;2.30;100.00;101414.94;5073957;28;20017;-79
2021/04/02 02:54:18;;;;;;;98.75;14.10;;;;;;;2.32;100.00;101408.19;5073402;28;20032;-79
2021/04/02 02:56:46;;;;;;;120.82;14.77;;;;;;;2.34;100.00;101410.78;5070029;28;20025;-79
2021/04/02 02:59:16;;;;;;;144.77;14.05;;;;;;;2.41;100.00;101411.03;5068609;28;20027;-79
2021/04/02 03:01:43;;;;;;;474.67;18.90;;;;;;;2.20;100.00;101407.84;5072940;28;20028;-78
2021/04/02 03:04:09;;;;;;;358.23;21.35;;;;;;;2.22;100.00;101395.97;5073835;28;20017;-79
2021/04/02 03:06:38;;;;;;;362.48;16.30;;;;;;;2.34;100.00;101405.66;5075135;28;20020;-79
2021/04/02 03:09:05;;;;;;;245.98;16.52;;;;;;;2.45;100.00;101407.72;5075420;28;20017;-78
2021/04/02 03:11:32;;;;;;;346.45;17.17;;;;;;;2.49;100.00;101411.22;5074584;28;20025;-79
2021/04/02 03:13:59;;;;;;;323.33;17.25;;;;;;;2.45;100.00;101410.28;5074471;28;20056;-78
2021/04/02 03:16:25;;;;;;;198.93;15.23;;;;;;;2.45;100.00;101412.84;5075196;28;20028;-79
2021/04/02 03:18:54;;;;;;;153.25;15.00;;;;;;;2.58;100.00;101408.06;5075949;28;20020;-79
2021/04/02 03:21:20;;;;;;;317.67;18.88;;;;;;;2.45;100.00;101401.72;5075051;28;20021;-79
2021/04/02 03:23:46;;;;;;;294.10;17.13;;;;;;;2.49;100.00;101399.31;5073038;28;20029;-79
2021/04/02 03:26:14;;;;;;;246.60;13.43;;;;;;;2.39;100.00;101389.63;5073301;28;20021;-79
2021/04/02 03:28:41;;;;;;;98.05;12.13;;;;;;;2.47;100.00;101384.72;5074094;28;20017;-79
2021/04/02 03:31:06;;;;;;;202.88;15.65;;;;;;;2.49;100.00;101376.28;5073718;28;20045;-79
2021/04/02 03:33:34;;;;;;;243.50;14.95;;;;;;;2.36;100.00;101366.50;5072845;28;20048;-79
2021/04/02 03:36:02;;;;;;;102.70;13.27;;;;;;;2.42;100.00;101374.34;5073231;28;20108;-79
2021/04/02 03:38:35;;;;;;;75.07;12.02;;;;;;;2.53;100.00;101377.22;5073158;28;20064;-78
2021/04/02 03:41:04;;;;;;;95.10;12.25;;;;;;;2.44;100.00;101377.84;5072942;28;20028;-79
2021/04/02 03:43:32;;;;;;;41.95;10.65;;;;;;;2.38;100.00;101369.97;5071816;28;20029;-79
2021/04/02 03:46:00;;;;;;;155.18;13.15;;;;;;;2.26;100.00;101387.53;5072242;28;20021;-79
2021/04/02 03:48:26;;;;;;;45.03;10.65;;;;;;;2.32;100.00;101390.28;5072652;28;20465;-79
2021/04/02 03:50:55;;;;;;;58.97;9.95;;;;;;;2.17;100.00;101382.16;5072187;28;20021;-78
2021/04/02 03:53:24;;;;;;;41.05;10.50;;;;;;;2.23;100.00;101385.75;5071727;28;20115;-79
2021/04/02 03:55:53;;;;;;;56.72;11.55;;;;;;;2.17;100.00;101379.59;5070734;28;20017;-78
2021/04/02 03:58:20;;;;;;;82.45;12.23;;;;;;;2.08;100.00;101370.81;5071519;28;20049;-78
2021/04/02 04:01:06;;;;;;;122.20;11.93;;;;;;;2.05;100.00;101378.41;5071899;28;20024;-78
2021/04/02 04:03:32;;;;;;;71.70;12.57;;;;;;;2.22;100.00;101375.50;5071639;28;20025;-79
2021/04/02 04:05:59;;;;;;;41.00;12.40;;;;;;;2.30;100.00;101376.56;5071298;28;20029;-79
2021/04/02 04:08:26;;;;;;;100.32;12.60;;;;;;;2.32;100.00;101376.63;5072642;28;20041;-79
2021/04/02 04:10:52;;;;;;;36.65;12.80;;;;;;;2.32;100.00;101371.50;5072414;28;20082;-77
2021/04/02 04:13:19;;;;;;;38.03;12.82;;;;;;;2.40;100.00;101373.47;5072394;28;20033;-77
2021/04/02 04:15:47;;;;;;;124.50;21.05;;;;;;;2.33;100.00;101368.09;5071574;28;20025;-78
2021/04/02 04:18:16;;;;;;;87.20;20.88;;;;;;;2.37;100.00;101369.91;5073076;28;20025;-77
2021/04/02 04:20:42;;;;;;;211.23;32.35;;;;;;;2.39;100.00;101374.25;5071993;28;20024;-78
2021/04/02 04:23:08;;;;;;;357.50;40.95;;;;;;;2.40;100.00;101373.47;5070248;28;20025;-78
2021/04/02 04:25:35;;;;;;;211.07;41.13;;;;;;;2.47;100.00;101383.03;5070423;28;20021;-78
2021/04/02 04:28:02;;;;;;;181.73;42.17;;;;;;;2.56;100.00;101376.44;5072906;28;20080;-78
2021/04/02 04:30:29;;;;;;;231.05;43.38;;;;;;;2.56;100.00;101381.56;5071937;28;20021;-78
2021/04/02 04:32:57;;;;;;;256.65;47.38;;;;;;;2.54;100.00;101377.25;5083404;22;20045;-78
2021/04/02 04:35:24;;;;;;;315.15;48.00;;;;;;;2.61;100.00;101387.66;5054430;28;20369;-78
2021/04/02 04:37:51;;;;;;;282.60;50.30;;;;;;;2.60;100.00;101383.38;5054347;28;20461;-77
2021/04/02 04:40:19;;;;;;;190.38;44.88;;;;;;;2.58;100.00;101388.44;5034954;28;20124;-76
2021/04/02 04:42:46;;;;;;;120.18;39.38;;;;;;;2.56;100.00;101381.56;5035171;28;20025;-77
2021/04/02 04:45:16;;;;;;;101.80;36.85;;;;;;;2.55;100.00;101383.22;5053238;28;20021;-77
2021/04/02 04:47:41;;;;;;;45.13;21.10;;;;;;;2.40;100.00;101380.25;5035304;28;20021;-77
2021/04/02 04:50:08;;;;;;;36.38;18.25;;;;;;;2.32;100.00;101376.63;5035148;28;20166;-77
2021/04/02 04:52:39;;;;;;;25.92;14.57;;;;;;;2.21;100.00;101379.72;5054383;28;20469;-77
2021/04/02 04:55:08;;;;;;;22.45;12.85;;;;;;;2.10;100.00;101377.69;5057165;28;20058;-77
2021/04/02 04:57:36;;;;;;;15.82;9.55;;;;;;;2.02;100.00;101374.91;5056993;28;20029;-77
2021/04/02 05:00:03;;;;;;;16.88;9.63;;;;;;;1.93;100.00;101375.47;5057212;28;20021;-77
2021/04/02 05:02:30;;;;;;;13.90;9.10;;;;;;;1.84;100.00;101377.75;5057159;28;20025;-77
2021/04/02 05:04:58;;;;;;;15.98;9.32;;;;;;;1.80;100.00;101365.72;5039104;28;20103;-77
2021/04/02 05:07:26;;;;;;;16.98;10.75;;;;;;;1.75;100.00;101367.25;5057201;28;20033;-77
2021/04/02 05:09:54;;;;;;;16.90;10.68;;;;;;;1.81;100.00;101375.97;5057042;28;20116;-77
2021/04/02 05:12:20;;;;;;;17.98;9.52;;;;;;;1.78;100.00;101383.53;5056518;28;20388;-77
2021/04/02 05:14:48;;;;;;;13.88;9.52;;;;;;;1.70;100.00;101373.94;5056901;28;20400;-77
2021/04/02 05:17:15;;;;;;;17.30;9.23;;;;;;;1.65;100.00;101380.59;5056511;28;20546;-77
2021/04/02 05:19:41;;;;;;;11.80;8.05;;;;;;;1.70;100.00;101381.59;5056730;28;20055;-77
2021/04/02 05:22:08;;;;;;;14.27;7.57;;;;;;;1.80;100.00;101381.06;5038806;28;20095;-77
2021/04/02 05:24:33;;;;;;;13.23;7.70;;;;;;;1.83;100.00;101383.72;5056776;28;20103;-77
2021/04/02 05:26:59;;;;;;;12.63;7.05;;;;;;;1.72;100.00;101387.63;5057194;28;20426;-77
2021/04/02 05:29:25;;;;;;;12.98;6.88;;;;;;;1.77;100.00;101380.97;5056965;28;20025;-78
2021/04/02 05:31:50;;;;;;;16.33;7.35;;;;;;;1.75;100.00;101378.34;5056772;28;20074;-77
2021/04/02 05:34:15;;;;;;;15.75;7.95;;;;;;;1.86;100.00;101362.47;5057104;28;20101;-77
2021/04/02 05:36:41;;;;;;;21.63;9.32;;;;;;;1.78;100.00;101370.75;5056522;28;20025;-77
2021/04/02 05:39:07;;;;;;;14.35;9.00;;;;;;;1.85;100.00;101364.16;5056429;28;20033;-77
2021/04/02 05:41:53;;;;;;;21.50;10.98;;;;;;;1.90;100.00;101366.84;5056111;28;20051;-77
2021/04/02 05:44:25;;;;;;;29.40;12.20;;;;;;;1.81;100.00;101372.56;5038105;28;20032;-77
2021/04/02 05:46:52;;;;;;;22.60;11.05;;;;;;;1.71;100.00;101370.53;5056298;28;20021;-77
2021/04/02 05:49:20;;;;;;;20.20;11.32;;;;;;;1.72;100.00;101377.38;5055985;28;20068;-77
2021/04/02 05:51:48;;;;;;;19.95;10.82;;;;;;;1.84;100.00;101368.38;5056056;28;20385;-77
2021/04/02 05:54:19;;;;;;;22.67;10.73;;;;;;;1.88;100.00;101369.38;5057016;28;20078;-78
2021/04/02 05:56:44;;;;;;;19.70;10.77;;;;;;;1.94;100.00;101373.78;5056822;28;20064;-78
2021/04/02 05:59:10;;;;;;;23.83;11.32;;;;;;;1.95;100.00;101373.84;5056892;28;20364;-78
2021/04/02 06:01:36;;;;;;;24.38;10.25;;;;;;;2.06;100.00;101380.16;5057958;28;20033;-79
2021/04/02 06:04:01;;;;;;;17.02;10.27;;;;;;;2.22;100.00;101372.94;5057139;28;20070;-79
2021/04/02 06:06:27;;;;;;;17.63;9.65;;;;;;;2.32;100.00;101371.50;5057995;28;20476;-78
2021/04/02 06:08:53;;;;;;;17.65;9.68;;;;;;;2.45;100.00;101374.44;5057601;28;20055;-78
2021/04/02 06:11:18;;;;;;;21.38;9.45;;;;;;;2.53;100.00;101380.66;5058031;28;20021;-79
2021/04/02 06:13:44;;;;;;;18.95;8.25;;;;;;;2.50;99.62;101377.13;5058361;28;20115;-79
2021/04/02 06:16:09;;;;;;;17.27;8.32;;;;;;;2.46;99.99;101372.72;5056698;28;20029;-78
2021/04/02 06:18:39;;;;;;;17.15;8.25;;;;;;;2.69;98.16;101373.38;5058155;28;20021;-79
2021/04/02 06:21:05;;;;;;;19.52;8.18;;;;;;;2.80;98.40;101374.53;5058363;28;20029;-79
2021/04/02 06:23:33;;;;;;;19.05;8.30;;;;;;;2.88;98.37;101375.59;5057973;28;20428;-79
2021/04/02 06:26:09;;;;;;;14.60;8.10;;;;;;;2.88;98.63;101374.72;5056797;28;20099;-78
2021/04/02 06:28:37;;;;;;;15.15;7.70;;;;;;;2.89;97.31;101369.63;5057266;28;20507;-78
2021/04/02 06:31:08;;;;;;;22.52;8.23;;;;;;;2.94;98.01;101374.91;5039409;28;20045;-78
2021/04/02 06:33:37;;;;;;;17.88;7.75;;;;;;;2.92;98.06;101379.09;5039102;28;20489;-79
2021/04/02 06:36:09;;;;;;;14.40;6.65;;;;;;;2.93;97.39;101380.84;5038700;28;20075;-79
2021/04/02 06:38:40;;;;;;;18.38;7.13;;;;;;;2.93;98.25;101384.28;5039909;28;20024;-79
2021/04/02 06:41:05;;;;;;;19.83;7.40;;;;;;;3.09;97.64;101371.88;5056682;28;20036;-79
2021/04/02 06:43:41;;;;;;;16.50;7.22;;;;;;;3.08;97.91;101378.69;5055946;28;20020;-78
2021/04/02 06:46:12;;;;;;;11.88;6.57;;;;;;;3.17;97.49;101370.34;5038879;28;20044;-78
2021/04/02 06:48:38;;;;;;;14.05;7.05;;;;;;;3.28;96.60;101371.47;5038836;28;20025;-78
2021/04/02 06:51:10;;;;;;;16.63;7.10;;;;;;;3.29;95.75;101373.22;5057044;28;20101;-78
2021/04/02 06:53:37;;;;;;;16.70;7.03;;;;;;;3.13;96.87;101363.41;5040249;28;20025;-78
2021/04/02 06:56:06;;;;;;;15.27;5.50;;;;;;;3.35;95.29;101367.38;5060865;28;20473;-78
2021/04/02 06:58:32;;;;;;;11.70;4.32;;;;;;;3.42;94.89;101371.84;5043163;28;20029;-78
2021/04/02 07:01:03;;;;;;;13.27;4.43;;;;;;;3.36;94.32;101370.00;5060490;28;20032;-79
2021/04/02 07:03:30;;;;;;;13.93;3.97;;;;;;;3.27;93.64;101363.78;5039387;28;20087;-78
2021/04/02 07:05:56;;;;;;;11.63;4.05;;;;;;;3.43;93.05;101364.16;5046547;28;20143;-79
2021/04/02 07:08:22;;;;;;;15.75;3.45;;;;;;;3.32;92.44;101354.47;5060496;28;20052;-78
2021/04/02 07:10:47;;;;;;;12.65;3.00;;;;;;;3.55;91.42;101365.28;5061206;28;20021;-78
2021/04/02 07:13:14;;;;;;;14.48;2.58;;;;;;;3.59;90.62;101362.81;5061712;28;20059;-78
2021/04/02 07:15:40;;;;;;;10.73;2.80;;;;;;;3.67;90.24;101360.44;5040866;28;20060;-77
2021/04/02 07:18:08;;;;;;;10.30;2.92;;;;;;;3.72;89.98;101363.09;5036268;28;20024;-76
2021/04/02 07:20:34;;;;;;;7.57;1.98;;;;;;;3.62;89.67;101367.16;5054181;28;20028;-76
2021/04/02 07:23:00;;;;;;;16.05;2.47;;;;;;;3.63;89.72;101372.34;5053888;28;20029;-77
2021/04/02 07:25:26;;;;;;;16.63;2.85;;;;;;;3.91;88.43;101367.84;5036129;28;20676;-77
2021/04/02 07:27:51;;;;;;;8.23;2.03;;;;;;;4.04;86.94;101363.84;5053987;28;20103;-76
2021/04/02 07:30:19;;;;;;;11.88;2.00;;;;;;;4.01;86.11;101351.78;5037997;28;20469;-78
2021/04/02 07:32:45;;;;;;;9.63;1.95;;;;;;;4.21;85.32;101365.03;5038007;28;20033;-79
2021/04/02 07:35:15;;;;;;;17.67;2.33;;;;;;;4.11;84.42;101355.41;5056351;28;20495;-78
2021/04/02 07:37:42;;;;;;;14.65;3.25;;;;;;;4.31;84.42;101361.84;5056326;28;20100;-78
2021/04/02 07:40:11;;;;;;;9.90;1.85;;;;;;;4.19;84.17;101353.88;5038950;28;20021;-79
2021/04/02 07:42:36;;;;;;;13.77;2.22;;;;;;;4.29;83.59;101352.38;5056121;28;20523;-78
2021/04/02 07:45:05;;;;;;;13.20;2.47;;;;;;;4.55;83.09;101350.28;5037871;28;20104;-78
2021/04/02 07:47:31;;;;;;;13.02;2.78;;;;;;;4.65;82.41;101344.50;5055398;28;20017;-77
2021/04/02 07:50:00;;;;;;;10.07;1.80;;;;;;;4.79;82.09;101337.91;5037886;28;20373;-78
2021/04/02 07:52:35;;;;;;;11.73;2.67;;;;;;;4.57;81.00;101334.06;5036328;28;20028;-78
2021/04/02 07:55:19;;;;;;;13.77;3.45;;;;;;;4.62;81.52;101336.75;5036328;28;20463;-76
2021/04/02 07:57:48;;;;;;;14.83;2.60;;;;;;;4.45;82.37;101323.56;5035644;28;20025;-77
2021/04/02 08:00:14;;;;;;;21.38;5.13;;;;;;;4.63;81.38;101330.75;5035544;28;20631;-77
2021/04/02 08:02:40;;;;;;;11.68;1.98;;;;;;;4.96;80.33;101317.66;5035390;28;20025;-76
2021/04/02 08:05:13;;;;;;;10.00;2.20;;;;;;;4.69;80.73;101315.47;5053327;28;20032;-76
2021/04/02 08:07:41;;;;;;;16.80;2.95;;;;;;;4.85;80.82;101308.88;5053320;28;20029;-76
2021/04/02 08:10:08;;;;;;;13.43;2.15;;;;;;;5.08;80.86;101314.44;5035229;28;20032;-76
2021/04/02 08:12:33;;;;;;;12.15;2.13;;;;;;;5.26;77.08;101306.09;5053045;28;20525;-76
2021/04/02 08:15:05;;;;;;;12.30;1.83;;;;;;;5.45;76.57;101302.09;5053104;28;20116;-76
2021/04/02 08:17:32;;;;;;;13.52;2.28;;;;;;;6.06;74.04;101296.97;5035068;28;20481;-76
2021/04/02 08:20:23;;;;;;;9.90;1.88;;;;;;;5.71;74.86;101289.63;5035969;28;20053;-76
2021/04/02 08:22:50;;;;;;;12.80;2.08;;;;;;;7.10;68.96;101283.38;5049361;28;20037;-76
2021/04/02 08:25:18;;;;;;;17.30;2.15;;;;;;;6.76;68.56;101283.97;5035160;28;20513;-76
2021/04/02 08:27:44;;;;;;;10.95;2.05;;;;;;;7.61;65.13;101278.56;5034687;28;20362;-76
2021/04/02 08:30:13;;;;;;;14.73;2.17;;;;;;;6.93;66.81;101279.81;5052806;28;20024;-76
2021/04/02 08:32:49;;;;;;;11.07;2.47;;;;;;;6.75;68.21;101280.53;5052732;28;20036;-76
2021/04/02 08:35:14;;;;;;;14.75;2.38;;;;;;;6.46;69.18;101290.53;5035586;28;20508;-76
2021/04/02 08:38:00;;;;;;;13.43;1.98;;;;;;;6.50;69.64;101296.63;5053465;28;20021;-76
2021/04/02 08:40:26;;;;;;;17.13;2.45;;;;;;;6.23;71.23;101291.16;5052787;28;20448;-76
2021/04/02 08:42:51;;;;;;;15.70;2.03;;;;;;;6.67;70.01;101285.59;5052758;28;20017;-76
2021/04/02 08:45:19;;;;;;;11.25;1.77;;;;;;;6.69;69.60;101293.38;5052654;28;20032;-77
2021/04/02 08:47:47;;;;;;;15.95;2.75;;;;;;;6.52;71.06;101293.19;5035277;28;20469;-76
2021/04/02 08:50:12;;;;;;;16.00;2.63;;;;;;;6.99;68.92;101284.16;5052719;28;20049;-76
2021/04/02 08:52:37;;;;;;;15.43;3.22;;;;;;;6.91;69.05;101294.41;5034836;28;20060;-76
2021/04/02 08:55:07;;;;;;;14.30;1.95;;;;;;;6.91;69.56;101303.00;5052967;28;20037;-76
2021/04/02 08:57:34;;;;;;;12.52;2.28;;;;;;;6.77;69.87;101298.56;5052901;28;20361;-76
2021/04/02 09:00:01;;;;;;;17.50;2.30;;;;;;;6.53;70.27;101299.22;5034907;28;20488;-76
2021/04/02 09:02:29;;;;;;;12.75;2.53;;;;;;;6.16;70.46;101304.81;5052464;28;20040;-76
2021/04/02 09:04:56;;;;;;;21.10;2.72;;;;;;;6.52;71.40;101303.50;5052733;28;20155;-77
2021/04/02 09:07:21;;;;;;;14.02;2.75;;;;;;;6.32;70.86;101294.69;5052602;28;20013;-76
2021/04/02 09:09:47;;;;;;;15.18;2.60;;;;;;;6.09;71.61;101297.84;5052608;28;20540;-76
2021/04/02 09:12:15;;;;;;;16.13;2.08;;;;;;;6.36;71.29;101307.63;5034525;28;20562;-75
2021/04/02 09:14:52;;;;;;;15.60;2.30;;;;;;;6.07;71.75;101297.00;5052507;28;20032;-75
2021/04/02 09:17:23;;;;;;;20.23;3.08;;;;;;;5.73;72.79;101306.81;5052488;28;20029;-77
2021/04/02 09:19:49;;;;;;;16.55;2.65;;;;;;;5.84;72.81;101308.66;5052483;28;20032;-78
2021/04/02 09:22:16;;;;;;;13.10;2.28;;;;;;;6.04;72.38;101314.97;5056687;28;20086;-79
2021/04/02 09:24:42;;;;;;;17.65;2.50;;;;;;;5.71;73.58;101320.50;5058491;28;20036;-79
2021/04/02 09:27:21;;;;;;;20.52;3.00;;;;;;;5.57;73.17;101311.72;5038380;28;20025;-79
2021/04/02 09:29:48;;;;;;;13.30;2.95;;;;;;;5.59;73.38;101318.63;5056698;28;20032;-79
2021/04/02 09:32:13;;;;;;;12.32;2.05;;;;;;;5.53;73.52;101305.66;5039637;28;20400;-80
2021/04/02 09:34:40;;;;;;;13.07;2.05;;;;;;;5.57;73.34;101302.28;5055944;28;20100;-80
2021/04/02 09:37:06;;;;;;;12.55;2.33;;;;;;;5.51;73.93;101303.09;5037641;28;20547;-80
2021/04/02 09:39:36;;;;;;;10.63;2.00;;;;;;;5.44;73.38;101292.66;5057277;28;20489;-79
2021/04/02 09:42:04;;;;;;;11.55;2.47;;;;;;;5.63;73.10;101298.94;5042297;28;20388;-79
2021/04/02 09:44:32;;;;;;;13.60;2.47;;;;;;;5.64;72.78;101291.25;5040685;28;20074;-79
2021/04/02 09:47:25;;;;;;;13.48;2.42;;;;;;;5.56;71.86;101290.28;5058777;28;20500;-79
2021/04/02 09:49:51;;;;;;;12.77;2.55;;;;;;;5.88;70.79;101293.28;5037979;28;20436;-79
2021/04/02 09:52:16;;;;;;;16.80;2.97;;;;;;;5.86;70.85;101291.53;5040272;28;20021;-79
2021/04/02 09:54:42;;;;;;;12.90;3.33;;;;;;;6.04;70.04;101294.38;5040557;28;20497;-79
2021/04/02 09:57:09;;;;;;;12.48;2.78;;;;;;;5.67;70.53;101293.88;5039297;28;20025;-79
2021/04/02 09:59:36;;;;;;;18.25;3.58;;;;;;;5.72;71.59;101288.75;5038126;28;20025;-78
2021/04/02 10:02:02;;;;;;;11.15;2.97;;;;;;;5.56;72.12;101285.13;5037989;28;20508;-78
2021/04/02 10:04:28;;;;;;;21.35;3.63;;;;;;;5.69;71.43;101286.16;5055728;28;20025;-78
2021/04/02 10:06:54;;;;;;;12.25;2.28;;;;;;;5.72;72.00;101281.91;5055691;28;20119;-77
2021/04/02 10:09:19;;;;;;;12.68;2.95;;;;;;;5.66;72.43;101283.53;5055362;28;20021;-77
2021/04/02 10:11:46;;;;;;;19.90;3.90;;;;;;;5.80;71.95;101282.03;5037533;28;20504;-77
2021/04/02 10:14:13;;;;;;;16.52;2.70;;;;;;;5.80;71.95;101269.16;5037266;28;20031;-77
2021/04/02 10:16:38;;;;;;;17.23;2.90;;;;;;;5.85;71.54;101277.81;5055327;28;20024;-77
2021/04/02 10:19:05;;;;;;;17.83;2.97;;;;;;;5.74;72.45;101276.78;5055431;28;20392;-77
2021/04/02 10:21:31;;;;;;;15.07;2.78;;;;;;;5.67;72.73;101280.16;5038060;28;20432;-77
2021/04/02 10:23:57;;;;;;;15.57;3.10;;;;;;;5.62;73.23;101269.78;5055419;28;20440;-77
2021/04/02 10:26:22;;;;;;;14.35;2.88;;;;;;;5.64;72.49;101267.22;5055420;28;20048;-77
2021/04/02 10:28:47;;;;;;;16.90;2.83;;;;;;;5.47;73.07;101280.72;5055222;28;20017;-77
2021/04/02 10:31:15;;;;;;;13.93;2.75;;;;;;;5.34;74.59;101276.25;5037300;28;20020;-77
2021/04/02 10:33:41;;;;;;;11.65;2.83;;;;;;;5.33;75.26;101284.81;5079097;22;20110;-77
2021/04/02 10:36:07;;;;;;;13.20;2.65;;;;;;;5.25;76.11;101282.09;5022192;28;20028;-77
2021/04/02 10:38:32;;;;;;;10.27;2.42;;;;;;;5.26;75.87;101270.09;5056943;28;20028;-78
2021/04/02 10:40:58;;;;;;;17.92;2.85;;;;;;;5.29;75.96;101265.00;5038634;28;20036;-78
2021/04/02 10:43:23;;;;;;;24.33;2.95;;;;;;;5.39;75.07;101272.03;5056476;28;20040;-77
2021/04/02 10:45:49;;;;;;;17.58;2.97;;;;;;;5.52;75.12;101273.94;5055156;28;20530;-77
2021/04/02 10:48:14;;;;;;;13.93;2.40;;;;;;;5.50;74.54;101274.75;5055629;28;20023;-79
2021/04/02 10:50:42;;;;;;;12.90;2.63;;;;;;;5.30;75.39;101277.91;5056958;28;20396;-78
2021/04/02 10:53:07;;;;;;;16.95;2.50;;;;;;;5.44;75.67;101274.66;5056492;28;20032;-77
2021/04/02 10:55:33;;;;;;;18.05;2.65;;;;;;;5.48;75.41;101271.28;5056358;28;20020;-77
2021/04/02 10:57:59;;;;;;;19.65;2.80;;;;;;;5.21;76.60;101257.19;5056126;28;20072;-77
2021/04/02 11:00:24;;;;;;;18.17;2.40;;;;;;;5.36;76.39;101255.66;5054143;28;20065;-78
2021/04/02 11:02:51;;;;;;;19.02;2.30;;;;;;;5.46;77.19;101254.97;5055600;28;20025;-77
2021/04/02 11:05:17;;;;;;;10.77;2.20;;;;;;;5.36;76.61;101258.25;5056194;28;20029;-79
2021/04/02 11:07:42;;;;;;;17.30;2.42;;;;;;;5.45;76.17;101248.09;5058370;28;20039;-78
2021/04/02 11:10:10;;;;;;;14.95;2.42;;;;;;;5.59;75.15;101249.16;5058957;28;20056;-77
2021/04/02 11:12:36;;;;;;;11.98;3.25;;;;;;;5.70;73.34;101234.72;5057355;28;20024;-78
2021/04/02 11:15:03;;;;;;;12.70;1.75;;;;;;;5.74;73.54;101243.34;5057254;28;20036;-78
2021/04/02 11:17:29;;;;;;;10.43;2.13;;;;;;;5.58;73.71;101236.28;5057062;28;20508;-78
2021/04/02 11:19:56;;;;;;;12.32;2.03;;;;;;;6.02;72.45;101244.56;5056038;28;20029;-78
2021/04/02 11:22:21;;;;;;;11.55;3.00;;;;;;;6.37;71.63;101241.50;5053436;28;20480;-78